createdAt,value
2019-05-01T00:01:15.902Z,96.80
2019-05-01T00:04:14.430Z,97.10
2019-05-01T00:06:48.822Z,97.50
2019-05-01T00:09:20.444Z,97.20
2019-05-01T00:11:50.871Z,96.90
2019-05-01T00:14:21.477Z,97.00
2019-05-01T00:16:52.009Z,97.20
2019-05-01T00:19:23.466Z,97.10
2019-05-01T00:21:53.843Z,96.70
2019-05-01T00:24:24.419Z,96.50
2019-05-01T00:26:54.851Z,96.70
2019-05-01T00:29:26.136Z,97.10
2019-05-01T00:31:56.652Z,97.80
2019-05-01T00:34:27.225Z,98.80
2019-05-01T00:36:57.647Z,99.70
2019-05-01T00:39:34.663Z,99.90
2019-05-01T00:42:05.111Z,99.90
2019-05-01T00:44:35.813Z,99.90
2019-05-01T00:47:06.373Z,99.90
2019-05-01T00:49:39.522Z,99.90
2019-05-01T00:52:09.824Z,99.90
2019-05-01T00:54:41.839Z,99.90
2019-05-01T00:57:19.882Z,99.90
2019-05-01T01:00:27.464Z,99.90
2019-05-01T01:02:58.474Z,99.90
2019-05-01T01:05:29.202Z,99.90
2019-05-01T01:07:59.658Z,99.90
2019-05-01T01:10:30.130Z,99.90
2019-05-01T01:13:00.645Z,99.90
2019-05-01T01:15:31.203Z,99.90
2019-05-01T01:18:01.648Z,99.90
2019-05-01T01:20:32.283Z,99.90
2019-05-01T01:23:03.356Z,99.90
2019-05-01T01:25:33.960Z,99.90
2019-05-01T01:28:04.399Z,99.90
2019-05-01T01:30:34.832Z,99.90
2019-05-01T01:33:05.354Z,99.90
2019-05-01T01:35:35.827Z,99.90
2019-05-01T01:38:06.534Z,99.90
2019-05-01T01:40:37.998Z,99.90
2019-05-01T01:43:26.503Z,99.90
2019-05-01T01:45:58.458Z,99.90
2019-05-01T01:48:28.817Z,99.90
2019-05-01T01:50:59.453Z,99.90
2019-05-01T01:53:31.053Z,99.90
2019-05-01T01:56:01.555Z,99.90
2019-05-01T01:58:32.161Z,99.90
2019-05-01T02:01:20.339Z,99.90
2019-05-01T02:03:55.275Z,99.90
2019-05-01T02:06:25.704Z,99.90
2019-05-01T02:08:56.877Z,99.90
2019-05-01T02:11:27.795Z,99.90
2019-05-01T02:13:58.482Z,99.90
2019-05-01T02:16:28.933Z,99.90
2019-05-01T02:18:59.247Z,99.90
2019-05-01T02:21:29.688Z,99.90
2019-05-01T02:24:00.047Z,99.90
2019-05-01T02:26:34.800Z,99.90
2019-05-01T02:29:12.862Z,99.90
2019-05-01T02:31:46.660Z,99.90
2019-05-01T02:34:19.095Z,99.90
2019-05-01T02:36:51.984Z,99.90
2019-05-01T02:39:23.466Z,99.90
2019-05-01T02:41:55.619Z,99.90
2019-05-01T02:44:29.600Z,99.90
2019-05-01T02:47:03.449Z,99.90
2019-05-01T02:49:53.253Z,99.90
2019-05-01T02:52:28.272Z,99.90
2019-05-01T02:55:02.691Z,99.90
2019-05-01T02:57:34.647Z,99.90
2019-05-01T03:00:05.771Z,99.90
2019-05-01T03:02:37.737Z,99.90
2019-05-01T03:05:09.492Z,99.90
2019-05-01T03:07:41.292Z,99.90
2019-05-01T03:10:11.768Z,99.90
2019-05-01T03:12:45.297Z,99.90
2019-05-01T03:15:16.398Z,99.90
2019-05-01T03:17:56.794Z,99.90
2019-05-01T03:20:37.296Z,99.90
2019-05-01T03:23:23.959Z,99.90
2019-05-01T03:25:54.782Z,99.90
2019-05-01T03:28:25.472Z,99.90
2019-05-01T03:30:56.516Z,99.90
2019-05-01T03:33:27.024Z,99.90
2019-05-01T03:35:57.691Z,99.90
2019-05-01T03:38:28.261Z,99.90
2019-05-01T03:40:58.929Z,99.90
2019-05-01T03:43:29.532Z,99.90
2019-05-01T03:46:00.155Z,99.90
2019-05-01T03:48:30.585Z,99.90
2019-05-01T03:51:01.292Z,99.90
2019-05-01T03:53:31.808Z,99.90
2019-05-01T03:56:02.074Z,99.90
2019-05-01T03:58:33.069Z,99.90
2019-05-01T04:01:38.867Z,99.90
2019-05-01T04:04:15.304Z,99.90
2019-05-01T04:06:45.774Z,99.90
2019-05-01T04:09:16.055Z,99.90
2019-05-01T04:11:46.718Z,99.90
2019-05-01T04:14:17.467Z,99.90
2019-05-01T04:16:51.968Z,99.90
2019-05-01T04:19:22.405Z,99.90
2019-05-01T04:21:58.228Z,99.90
2019-05-01T04:24:28.769Z,99.90
2019-05-01T04:26:59.204Z,99.90
2019-05-01T04:29:42.267Z,99.90
2019-05-01T04:32:20.536Z,99.90
2019-05-01T04:35:10.361Z,99.90
2019-05-01T04:37:40.937Z,99.90
2019-05-01T04:40:11.344Z,99.90
2019-05-01T04:42:41.648Z,99.90
2019-05-01T04:45:12.561Z,99.90
2019-05-01T04:47:43.063Z,99.90
2019-05-01T04:50:13.634Z,99.90
2019-05-01T04:52:44.939Z,99.90
2019-05-01T04:55:15.991Z,99.90
2019-05-01T04:57:47.078Z,99.90
2019-05-01T05:00:17.588Z,99.90
2019-05-01T05:03:04.393Z,99.90
2019-05-01T05:05:26.659Z,99.90
2019-05-01T05:07:57.114Z,99.90
2019-05-01T05:10:27.807Z,99.90
2019-05-01T05:13:17.744Z,99.90
2019-05-01T05:16:20.506Z,99.90
2019-05-01T05:18:50.876Z,99.90
2019-05-01T05:21:21.251Z,99.90
2019-05-01T05:23:51.816Z,99.90
2019-05-01T05:26:22.231Z,99.90
2019-05-01T05:28:53.204Z,99.90
2019-05-01T05:31:26.051Z,99.90
2019-05-01T05:33:59.134Z,99.90
2019-05-01T05:36:32.143Z,99.90
2019-05-01T05:39:11.865Z,99.90
2019-05-01T05:41:43.420Z,99.90
2019-05-01T05:44:14.288Z,99.90
2019-05-01T05:46:44.629Z,99.90
2019-05-01T05:49:15.942Z,99.90
2019-05-01T05:52:11.556Z,99.90
2019-05-01T12:09:07.723Z,70.00
2019-05-01T12:11:39.809Z,71.00
2019-05-01T12:14:10.230Z,69.20
2019-05-01T12:17:17.835Z,71.00
2019-05-01T12:19:48.270Z,70.30
2019-05-01T12:22:18.776Z,71.10
2019-05-01T12:24:49.324Z,71.60
2019-05-01T12:27:20.073Z,70.00
2019-05-01T12:29:50.411Z,70.20
2019-05-01T12:32:20.850Z,70.00
2019-05-01T12:34:51.299Z,69.50
2019-05-01T12:37:35.190Z,70.10
2019-05-01T12:40:06.648Z,65.40
2019-05-01T12:42:38.116Z,67.20
2019-05-01T12:45:09.772Z,67.70
2019-05-01T12:47:57.543Z,67.70
2019-05-01T12:50:29.498Z,66.20
2019-05-01T12:53:15.248Z,67.80
2019-05-01T12:56:05.228Z,68.90
2019-05-01T12:58:37.211Z,64.40
2019-05-01T13:01:07.899Z,60.70
2019-05-01T13:03:38.392Z,62.80
2019-05-01T13:06:08.861Z,59.20
2019-05-01T13:08:39.278Z,60.70
2019-05-01T13:11:09.774Z,61.00
2019-05-01T13:13:40.112Z,59.30
2019-05-01T13:16:10.538Z,68.10
2019-05-01T13:18:40.823Z,73.40
2019-05-01T13:21:11.295Z,76.40
2019-05-01T13:23:41.711Z,67.10
2019-05-01T13:26:25.564Z,72.30
2019-05-01T13:29:07.139Z,68.30
2019-05-01T13:31:59.566Z,69.30
2019-05-01T13:34:29.911Z,64.60
2019-05-01T13:37:03.031Z,58.90
2019-05-01T13:39:32.558Z,58.80
2019-05-01T13:44:39.915Z,59.20
2019-05-01T13:47:11.186Z,58.70
2019-05-01T13:49:41.515Z,65.20
2019-05-01T13:52:14.940Z,58.60
2019-05-01T13:54:45.265Z,63.20
2019-05-01T13:57:16.725Z,59.10
2019-05-01T13:59:47.064Z,60.40
2019-05-01T14:02:17.515Z,59.70
2019-05-01T14:04:47.799Z,55.20
2019-05-01T14:07:19.461Z,61.90
2019-05-01T14:09:49.789Z,58.70
2019-05-01T14:12:20.158Z,61.20
2019-05-01T14:14:50.482Z,61.40
2019-05-01T14:17:22.811Z,60.40
2019-05-01T14:20:10.800Z,58.10
2019-05-01T14:22:54.083Z,54.20
2019-05-01T14:25:24.348Z,53.80
2019-05-01T14:27:54.677Z,57.40
2019-05-01T14:30:25.051Z,59.70
2019-05-01T14:32:55.391Z,58.60
2019-05-01T14:35:25.652Z,53.40
2019-05-01T14:37:56.249Z,54.10
2019-05-01T14:40:26.696Z,51.00
2019-05-01T14:42:57.018Z,55.80
2019-05-01T14:45:27.304Z,48.70
2019-05-01T14:47:57.655Z,44.00
2019-05-01T14:50:28.007Z,38.80
2019-05-01T14:52:58.355Z,35.20
2019-05-01T14:55:28.708Z,35.30
2019-05-01T14:57:59.029Z,31.00
2019-05-01T15:00:29.375Z,31.20
2019-05-01T15:02:59.727Z,28.40
2019-05-01T15:05:30.019Z,26.80
2019-05-01T15:08:00.435Z,24.70
2019-05-01T15:10:30.787Z,24.70
2019-05-01T15:13:03.854Z,25.80
